Time;durP1;ratioP1;P1;durP2;ratioP2;P2;SDS_P1;SDS_P2;PMS_P1;PMS_P2;Temp;Humidity;BMP_temperature;BMP_pressure;BME280_temperature;BME280_humidity;BME280_pressure;Samples;Min_cycle;Max_cycle;Signal;HPM_P1;HPM_P2
2022/12/21 00:01:50;;;;;;;108.97;67.57;;;;;;;-3.26;100.00;102467.75;5091883;28;20044;-83
2022/12/21 00:04:17;;;;;;;106.10;69.75;;;;;;;-3.08;100.00;102467.78;5091632;28;20113;-83
2022/12/21 00:06:45;;;;;;;108.57;73.57;;;;;;;-3.28;100.00;102466.13;5092185;28;20048;-85
2022/12/21 00:12:05;;;;;;;108.75;69.57;;;;;;;-3.28;100.00;102474.75;5104685;27;20375;-84
2022/12/21 00:14:31;;;;;;;94.40;66.65;;;;;;;-3.25;100.00;102476.38;5072271;28;20060;-83
2022/12/21 00:16:58;;;;;;;107.30;69.60;;;;;;;-3.18;100.00;102467.34;5072058;28;20454;-83
2022/12/21 00:19:25;;;;;;;107.70;65.35;;;;;;;-3.23;100.00;102470.19;5072513;28;20052;-83
2022/12/21 00:21:52;;;;;;;107.47;64.45;;;;;;;-3.22;100.00;102469.25;5071871;28;20060;-83
2022/12/21 00:24:19;;;;;;;109.55;65.00;;;;;;;-3.51;100.00;102475.00;5072296;28;20045;-84
2022/12/21 00:26:46;;;;;;;103.90;69.20;;;;;;;-3.32;100.00;102469.78;5071607;28;20049;-83
2022/12/21 00:31:53;;;;;;;117.40;70.43;;;;;;;-3.11;100.00;102463.56;5133390;27;20394;-83
2022/12/21 00:34:21;;;;;;;107.53;65.80;;;;;;;-3.14;100.00;102455.06;5133457;28;20427;-83
2022/12/21 00:36:49;;;;;;;106.68;71.13;;;;;;;-3.15;100.00;102456.81;5133314;28;20054;-84
2022/12/21 00:39:17;;;;;;;114.25;67.80;;;;;;;-3.35;100.00;102462.16;5132373;28;20051;-82
2022/12/21 00:44:24;;;;;;;115.15;67.20;;;;;;;-3.25;100.00;102461.63;5153742;27;20415;-85
2022/12/21 00:46:51;;;;;;;122.45;69.32;;;;;;;-3.28;100.00;102459.16;5153490;27;20057;-85
2022/12/21 00:52:00;;;;;;;134.07;69.88;;;;;;;-3.41;100.00;102439.88;5146070;27;20372;-86
2022/12/21 00:54:26;;;;;;;119.97;69.43;;;;;;;-3.18;100.00;102440.53;5112070;28;20043;-82
2022/12/21 00:56:54;;;;;;;122.80;70.68;;;;;;;-3.29;100.00;102441.91;5112559;28;20044;-85
2022/12/21 00:59:21;;;;;;;135.57;74.35;;;;;;;-3.25;100.00;102440.00;5112523;28;20403;-84
2022/12/21 01:01:47;;;;;;;131.30;73.45;;;;;;;-3.14;100.00;102442.09;5116298;22;20048;-92
2022/12/21 01:04:14;;;;;;;126.00;75.10;;;;;;;-3.23;100.00;102440.75;5100738;28;20048;-92
2022/12/21 01:06:57;;;;;;;119.75;69.72;;;;;;;-3.27;100.00;102437.47;5174719;27;20435;-84
2022/12/21 01:09:24;;;;;;;135.07;77.38;;;;;;;-3.33;100.00;102423.91;5174251;27;20042;-82
2022/12/21 01:11:50;;;;;;;142.35;76.10;;;;;;;-3.19;100.00;102418.06;5173822;27;20054;-83
2022/12/21 01:14:17;;;;;;;140.80;80.90;;;;;;;-3.24;100.00;102402.66;5173912;27;20107;-84
2022/12/21 01:16:44;;;;;;;127.47;72.95;;;;;;;-3.19;100.00;102411.09;5174082;27;20111;-85
2022/12/21 01:19:12;;;;;;;127.80;76.55;;;;;;;-3.25;100.00;102404.44;5174057;27;20115;-83
2022/12/21 01:21:38;;;;;;;135.32;70.20;;;;;;;-3.66;100.00;102387.41;5174301;27;20115;-85
2022/12/21 01:24:07;;;;;;;140.18;71.80;;;;;;;-3.37;100.00;102406.78;5174479;27;20110;-85
2022/12/21 01:26:35;;;;;;;126.38;70.90;;;;;;;-3.53;100.00;102404.94;5173945;27;20091;-83
2022/12/21 01:29:01;;;;;;;125.10;70.25;;;;;;;-3.64;100.00;102382.97;5174600;27;20050;-84
2022/12/21 01:34:30;;;;;;;114.57;65.30;;;;;;;-3.86;100.00;102383.16;5153694;27;20872;-84
2022/12/21 01:36:57;;;;;;;130.35;65.40;;;;;;;-3.94;100.00;102384.34;5153855;27;20440;-84
2022/12/21 01:39:25;;;;;;;124.38;71.35;;;;;;;-3.64;100.00;102382.97;5154164;27;20439;-83
2022/12/21 01:41:53;;;;;;;134.20;69.63;;;;;;;-3.73;100.00;102384.25;5153258;27;20047;-82
2022/12/21 01:44:58;;;;;;;135.10;75.95;;;;;;;-3.53;100.00;102381.56;5153002;27;20134;-82
2022/12/21 01:50:26;;;;;;;128.13;73.07;;;;;;;-3.42;100.00;102377.59;5091919;27;20369;-83
2022/12/21 01:52:54;;;;;;;122.80;73.93;;;;;;;-3.68;100.00;102377.09;5091942;28;20113;-83
2022/12/21 01:55:22;;;;;;;112.70;68.22;;;;;;;-3.85;100.00;102370.09;5092078;28;20052;-84
2022/12/21 01:57:49;;;;;;;113.90;65.75;;;;;;;-3.41;100.00;102369.72;5090944;28;20075;-83
2022/12/21 02:00:16;;;;;;;124.43;71.90;;;;;;;-3.66;100.00;102362.28;5092239;28;20052;-83
2022/12/21 02:02:47;;;;;;;124.07;69.40;;;;;;;-3.50;100.00;102365.00;5091830;28;20047;-83
2022/12/21 02:05:24;;;;;;;119.03;69.70;;;;;;;-3.74;100.00;102362.66;5091650;28;20051;-83
2022/12/21 02:07:52;;;;;;;137.18;74.22;;;;;;;-3.67;100.00;102355.41;5091533;28;20174;-85
2022/12/21 02:10:19;;;;;;;122.68;75.43;;;;;;;-3.56;100.00;102337.53;5091627;28;20048;-84
2022/12/21 02:12:49;;;;;;;129.50;68.35;;;;;;;-3.52;100.00;102346.88;5091558;28;20377;-84
2022/12/21 02:15:15;;;;;;;118.65;71.43;;;;;;;-3.75;100.00;102350.59;5091599;28;20052;-82
2022/12/21 02:17:50;;;;;;;119.70;72.57;;;;;;;-3.66;100.00;102341.50;5091305;28;20044;-83
2022/12/21 02:20:47;;;;;;;123.35;72.22;;;;;;;-3.64;100.00;102325.84;5091591;28;20458;-84
2022/12/21 02:23:42;;;;;;;121.28;73.40;;;;;;;-3.78;100.00;102332.56;5088096;28;20052;-84
2022/12/21 02:26:46;;;;;;;116.10;68.95;;;;;;;-4.03;100.00;102329.41;5088055;28;20125;-82
2022/12/21 02:29:50;;;;;;;114.50;69.35;;;;;;;-4.19;100.00;102311.97;5091200;28;20044;-82
2022/12/21 02:32:28;;;;;;;79.78;66.07;;;;;;;-3.99;100.00;102321.44;5091154;28;20105;-83
2022/12/21 02:35:05;;;;;;;115.10;75.45;;;;;;;-3.75;100.00;102315.97;5090973;28;20400;-83
2022/12/21 02:37:41;;;;;;;111.35;64.88;;;;;;;-3.96;100.00;102320.44;5091313;28;20051;-83
2022/12/21 02:40:18;;;;;;;114.32;67.30;;;;;;;-3.73;100.00;102322.75;5091053;28;20048;-84
2022/12/21 02:48:45;;;;;;;106.32;66.75;;;;;;;-4.27;100.00;102331.41;5052231;27;20391;-82
2022/12/21 02:51:20;;;;;;;82.22;57.50;;;;;;;-4.08;100.00;102331.41;5051410;28;20528;-82
2022/12/21 02:53:47;;;;;;;69.70;58.00;;;;;;;-3.80;100.00;102325.75;5052009;28;20053;-82
2022/12/21 02:56:16;;;;;;;83.32;59.10;;;;;;;-4.41;100.00;102311.28;5051856;28;20049;-83
2022/12/21 03:02:03;;;;;;;109.30;71.97;;;;;;;-4.26;100.00;102301.97;5051362;28;20743;-83
2022/12/21 03:04:46;;;;;;;112.05;68.22;;;;;;;-4.48;100.00;102299.50;5051457;28;20045;-85
2022/12/21 03:07:35;;;;;;;108.03;70.03;;;;;;;-4.28;100.00;102303.78;5051749;28;20049;-83
2022/12/21 03:10:10;;;;;;;132.93;76.30;;;;;;;-4.27;100.00;102300.25;5049356;28;20107;-84
2022/12/21 03:12:51;;;;;;;111.05;72.43;;;;;;;-4.25;100.00;102290.66;5051907;28;20049;-82
2022/12/21 03:15:28;;;;;;;109.85;68.32;;;;;;;-4.28;100.00;102286.44;5051464;28;20115;-82
2022/12/21 03:18:07;;;;;;;112.05;63.45;;;;;;;-4.37;100.00;102282.53;5051726;28;20072;-84
2022/12/21 03:20:39;;;;;;;97.70;60.47;;;;;;;-4.42;100.00;102281.06;5051170;28;20543;-84
2022/12/21 03:23:14;;;;;;;123.90;70.05;;;;;;;-4.42;100.00;102292.31;5051310;28;20543;-83
2022/12/21 03:25:46;;;;;;;127.22;74.00;;;;;;;-4.17;100.00;102281.63;5051139;28;20535;-85
2022/12/21 03:28:15;;;;;;;;;;;;;;;-4.17;100.00;102280.78;5051693;28;20122;-84
2022/12/21 03:30:45;;;;;;;98.68;57.25;;;;;;;-4.30;100.00;102274.47;5051319;28;19929;-83
2022/12/21 03:33:16;;;;;;;118.60;69.95;;;;;;;-4.24;100.00;102280.19;5051040;28;20378;-84
2022/12/21 03:35:49;;;;;;;112.20;64.37;;;;;;;-4.21;100.00;102281.81;5051337;28;20119;-84
2022/12/21 03:38:21;;;;;;;116.53;66.07;;;;;;;-4.06;100.00;102285.44;5051283;28;20284;-82
2022/12/21 03:40:50;;;;;;;;;;;;;;;-4.03;100.00;102282.69;5051107;28;20424;-82
2022/12/21 03:43:24;;;;;;;126.53;74.85;;;;;;;-3.99;100.00;102276.47;5050917;28;19982;-84
2022/12/21 03:45:56;;;;;;;117.22;71.15;;;;;;;-4.09;100.00;102273.44;5050787;28;20114;-84
2022/12/21 03:48:27;;;;;;;133.52;74.00;;;;;;;-4.17;100.00;102265.22;5051068;28;20057;-83
2022/12/21 03:51:02;;;;;;;106.60;61.88;;;;;;;-4.07;100.00;102270.78;5051064;28;20056;-85
2022/12/21 03:53:37;;;;;;;116.40;67.53;;;;;;;-4.12;100.00;102271.00;5051175;28;20053;-83
2022/12/21 03:56:06;;;;;;;97.72;62.85;;;;;;;-4.28;100.00;102262.28;5050832;28;20523;-83
2022/12/21 03:58:35;;;;;;;119.53;66.20;;;;;;;-4.21;100.00;102263.66;5038031;28;20124;-82
2022/12/21 04:01:11;;;;;;;117.70;69.15;;;;;;;-4.23;100.00;102268.94;5030406;28;20115;-83
2022/12/21 04:03:42;;;;;;;112.65;64.50;;;;;;;-4.23;100.00;102268.94;5030977;28;20045;-82
2022/12/21 04:06:16;;;;;;;101.20;59.20;;;;;;;-4.38;100.00;102260.09;5030562;28;20112;-83
2022/12/21 04:08:43;;;;;;;116.20;64.85;;;;;;;-4.35;100.00;102263.47;5030490;28;20540;-84
2022/12/21 04:12:36;;;;;;;109.32;61.92;;;;;;;-4.31;100.00;102265.00;5028113;28;20046;-86
2022/12/21 04:13:57;;;;;;;116.65;68.45;;;;;;;-4.17;100.00;102260.00;5017602;28;20172;-84
2022/12/21 04:16:25;;;;;;;108.35;62.58;;;;;;;-4.39;100.00;102268.81;5017403;28;20081;-84
2022/12/21 04:29:46;;;;;;;117.07;68.78;;;;;;;-4.29;100.00;102242.44;5061210;28;20261;-83
2022/12/21 04:32:12;;;;;;;114.70;75.93;;;;;;;-4.28;100.00;102250.13;5091927;28;20044;-85
2022/12/21 04:34:39;;;;;;;111.35;68.68;;;;;;;-4.32;100.00;102248.59;5091945;28;20056;-83
2022/12/21 04:39:51;;;;;;;112.28;67.90;;;;;;;-4.34;100.00;102250.41;5091680;28;20443;-85
2022/12/21 04:42:18;;;;;;;108.78;68.60;;;;;;;-4.34;100.00;102247.00;5091890;28;20117;-84
2022/12/21 04:44:45;;;;;;;105.15;63.90;;;;;;;-4.44;100.00;102251.78;5091886;28;20048;-83
2022/12/21 04:47:12;;;;;;;111.47;66.47;;;;;;;-4.43;100.00;102250.84;5091471;28;20048;-83
2022/12/21 04:49:39;;;;;;;117.95;70.90;;;;;;;-4.30;100.00;102246.75;5091812;28;20133;-85
2022/12/21 04:52:06;;;;;;;115.70;69.57;;;;;;;-4.51;100.00;102237.38;5091720;28;20454;-84
2022/12/21 04:54:33;;;;;;;107.13;70.03;;;;;;;-4.38;100.00;102241.13;5091358;28;20468;-84
2022/12/21 04:57:01;;;;;;;106.03;60.72;;;;;;;-4.40;100.00;102238.56;5091028;28;20083;-82
2022/12/21 04:59:28;;;;;;;93.10;60.97;;;;;;;-4.62;100.00;102224.94;5091004;28;20056;-84
2022/12/21 05:01:54;;;;;;;100.68;62.75;;;;;;;-4.40;100.00;102228.19;5091101;28;20044;-83
2022/12/21 05:04:21;;;;;;;107.90;61.60;;;;;;;-4.54;100.00;102233.19;5084851;28;20118;-82
2022/12/21 05:06:48;;;;;;;109.88;64.38;;;;;;;-4.45;100.00;102224.13;5070507;28;20118;-83
2022/12/21 05:09:15;;;;;;;116.80;68.38;;;;;;;-4.58;100.00;102210.91;5070876;28;20044;-82
2022/12/21 05:11:42;;;;;;;115.15;67.47;;;;;;;-4.46;100.00;102206.91;5069180;28;20053;-82
2022/12/21 05:14:10;;;;;;;116.00;68.43;;;;;;;-4.45;100.00;102201.66;5070592;28;20531;-82
2022/12/21 05:16:38;;;;;;;117.97;67.47;;;;;;;-4.52;100.00;102197.66;5070495;28;20084;-85
2022/12/21 05:19:06;;;;;;;98.03;61.63;;;;;;;-4.49;100.00;102196.66;5070527;28;20114;-83
2022/12/21 05:21:33;;;;;;;100.45;62.83;;;;;;;-4.50;100.00;102190.66;5070671;28;20103;-83
2022/12/21 05:26:39;;;;;;;111.45;64.80;;;;;;;-4.57;100.00;102186.63;5092025;27;20385;-82
2022/12/21 05:29:06;;;;;;;101.10;59.53;;;;;;;-4.69;100.00;102176.84;5091877;28;20056;-83
2022/12/21 05:31:32;;;;;;;103.13;60.83;;;;;;;-4.66;100.00;102169.78;5091936;28;20045;-82
2022/12/21 05:33:59;;;;;;;92.78;56.50;;;;;;;-4.69;100.00;102175.13;5092157;28;20052;-82
2022/12/21 05:36:26;;;;;;;106.60;63.55;;;;;;;-4.65;100.00;102178.41;5091225;28;20071;-83
2022/12/21 05:38:53;;;;;;;109.63;65.35;;;;;;;-4.52;100.00;102186.44;5091557;28;20056;-83
2022/12/21 05:44:13;;;;;;;104.55;63.25;;;;;;;-4.46;100.00;102175.78;5091828;27;20373;-82
2022/12/21 05:46:40;;;;;;;91.57;53.22;;;;;;;-4.49;100.00;102189.72;5091802;28;20118;-82
2022/12/21 05:49:07;;;;;;;97.00;55.63;;;;;;;-4.49;100.00;102181.94;5091895;28;20472;-84
2022/12/21 05:51:34;;;;;;;102.72;61.95;;;;;;;-4.59;100.00;102180.72;5092035;28;20048;-85
2022/12/21 05:54:00;;;;;;;102.55;58.75;;;;;;;-4.30;100.00;102175.88;5091532;28;20052;-84
2022/12/21 05:56:27;;;;;;;99.35;58.80;;;;;;;-4.38;100.00;102184.88;5091535;28;20048;-83
2022/12/21 05:58:54;;;;;;;96.90;59.00;;;;;;;-4.59;100.00;102180.72;5091791;28;20557;-84
2022/12/21 06:01:22;;;;;;;105.28;63.10;;;;;;;-4.38;100.00;102176.25;5091412;28;20460;-82
2022/12/21 06:03:50;;;;;;;103.00;58.78;;;;;;;-4.65;100.00;102173.22;5091471;28;20052;-83
2022/12/21 06:06:19;;;;;;;99.28;58.03;;;;;;;-4.32;100.00;102172.53;5091613;28;20117;-82
2022/12/21 06:08:46;;;;;;;106.30;59.38;;;;;;;-4.35;100.00;102177.88;5091781;28;20083;-84
2022/12/21 06:11:15;;;;;;;99.32;59.65;;;;;;;-4.46;100.00;102173.19;5091635;28;20063;-85
2022/12/21 06:13:41;;;;;;;98.78;58.78;;;;;;;-4.31;100.00;102171.59;5091279;28;20056;-83
2022/12/21 06:16:10;;;;;;;111.53;64.25;;;;;;;-4.19;100.00;102176.19;5090984;28;20049;-83
2022/12/21 06:18:40;;;;;;;107.10;60.95;;;;;;;-4.26;100.00;102169.63;5091071;28;20099;-83
2022/12/21 06:21:09;;;;;;;117.93;63.50;;;;;;;-4.09;100.00;102174.00;5091483;28;20117;-82
2022/12/21 06:23:36;;;;;;;104.32;62.58;;;;;;;-4.15;100.00;102175.13;5091251;28;20048;-83
2022/12/21 06:26:04;;;;;;;109.90;63.97;;;;;;;-4.18;100.00;102175.28;5091192;28;20048;-84
2022/12/21 06:28:32;;;;;;;107.70;63.17;;;;;;;-4.33;100.00;102183.81;5091633;28;20056;-84
2022/12/21 06:31:04;;;;;;;90.30;59.97;;;;;;;-4.45;100.00;102193.00;5090906;28;20374;-85
2022/12/21 06:33:30;;;;;;;96.53;60.08;;;;;;;-4.80;100.00;102187.72;5090929;28;20131;-84
2022/12/21 06:35:59;;;;;;;87.97;53.90;;;;;;;-4.52;100.00;102186.44;5090996;28;20044;-81
2022/12/21 06:38:26;;;;;;;101.88;58.50;;;;;;;-4.40;100.00;102197.06;5091115;28;20052;-85
2022/12/21 06:40:54;;;;;;;102.97;58.70;;;;;;;-4.25;100.00;102192.06;5090869;28;20040;-85
2022/12/21 06:43:21;;;;;;;98.82;60.40;;;;;;;-4.18;100.00;102198.63;5090629;28;20135;-82
2022/12/21 06:45:54;;;;;;;104.68;59.65;;;;;;;-4.32;100.00;102185.50;5090781;28;20048;-83
2022/12/21 06:48:22;;;;;;;91.57;57.25;;;;;;;-4.55;100.00;102196.97;5090730;28;20044;-83
2022/12/21 06:50:52;;;;;;;85.38;49.95;;;;;;;-4.76;100.00;102194.44;5090959;28;20462;-84
2022/12/21 06:53:21;;;;;;;90.63;58.45;;;;;;;-4.54;100.00;102183.06;5090249;28;20123;-83
2022/12/21 06:55:48;;;;;;;91.90;58.88;;;;;;;-4.42;100.00;102188.53;5076785;28;20459;-83
2022/12/21 06:58:15;;;;;;;92.80;61.10;;;;;;;-4.68;100.00;102192.34;5077088;28;20526;-84
2022/12/21 07:00:43;;;;;;;100.25;62.78;;;;;;;-4.63;100.00;102192.97;5076842;28;20052;-85
2022/12/21 07:03:10;;;;;;;97.43;58.63;;;;;;;-4.57;100.00;102183.22;5076804;28;20515;-84
2022/12/21 07:05:36;;;;;;;102.63;64.28;;;;;;;-4.23;100.00;102182.47;5076831;28;20056;-83
2022/12/21 07:10:43;;;;;;;95.75;60.10;;;;;;;-4.56;100.00;102188.34;5092100;27;20389;-84
2022/12/21 07:13:10;;;;;;;111.70;70.80;;;;;;;-4.01;100.00;102185.69;5092001;28;20052;-84
2022/12/21 07:15:36;;;;;;;98.35;62.60;;;;;;;-3.95;100.00;102197.53;5091871;28;20094;-85
2022/12/21 07:18:04;;;;;;;110.07;67.15;;;;;;;-3.99;100.00;102194.25;5091825;28;20135;-84
2022/12/21 07:20:30;;;;;;;102.57;69.55;;;;;;;-3.98;100.00;102195.91;5091525;28;20469;-83
2022/12/21 07:22:57;;;;;;;98.28;58.65;;;;;;;-4.28;100.00;102184.44;5091690;28;20462;-82
2022/12/21 07:25:24;;;;;;;97.43;61.35;;;;;;;-4.13;100.00;102186.28;5091731;28;20122;-84
2022/12/21 07:27:52;;;;;;;104.45;65.68;;;;;;;-3.87;100.00;102181.53;5091848;28;20451;-85
2022/12/21 07:30:19;;;;;;;94.43;66.35;;;;;;;-4.10;100.00;102190.50;5091498;28;20044;-83
2022/12/21 07:32:46;;;;;;;99.72;65.38;;;;;;;-4.49;100.00;102179.34;5091540;28;20120;-84
2022/12/21 07:35:12;;;;;;;97.90;62.78;;;;;;;-4.45;100.00;102185.22;5092147;28;20048;-82
2022/12/21 07:37:39;;;;;;;113.15;66.70;;;;;;;-4.32;100.00;102173.38;5091346;28;20051;-86
2022/12/21 07:40:07;;;;;;;114.78;68.43;;;;;;;-3.98;100.00;102179.50;5091346;28;20132;-82
2022/12/21 07:42:34;;;;;;;110.05;64.97;;;;;;;-4.16;100.00;102183.84;5091038;28;20512;-81
2022/12/21 07:45:02;;;;;;;95.10;60.10;;;;;;;-4.20;100.00;102183.16;5091545;28;20044;-84
2022/12/21 07:47:29;;;;;;;109.15;64.18;;;;;;;-4.16;100.00;102181.25;5091170;28;20373;-83
2022/12/21 07:49:56;;;;;;;118.55;75.53;;;;;;;-4.26;100.00;102180.84;5091292;28;20078;-82
2022/12/21 07:52:22;;;;;;;111.10;72.28;;;;;;;-3.94;100.00;102170.63;5090914;28;20485;-85
2022/12/21 07:54:49;;;;;;;97.75;62.28;;;;;;;-3.96;100.00;102168.13;5091243;28;20443;-83
2022/12/21 07:57:16;;;;;;;141.15;74.55;;;;;;;-4.25;100.00;102169.56;5091304;28;20055;-83
2022/12/21 07:59:42;;;;;;;106.28;66.82;;;;;;;-4.31;100.00;102164.66;5091328;28;20114;-85
2022/12/21 08:02:11;;;;;;;101.75;66.72;;;;;;;-3.83;100.00;102150.16;5090904;28;20044;-84
2022/12/21 08:04:38;;;;;;;116.30;63.85;;;;;;;-3.88;100.00;102141.78;5090866;28;20105;-83
2022/12/21 08:07:05;;;;;;;100.28;60.40;;;;;;;-4.13;100.00;102160.31;5090852;28;20114;-84
2022/12/21 08:09:32;;;;;;;97.47;63.50;;;;;;;-3.84;100.00;102148.50;5090493;28;20396;-83
2022/12/21 08:11:59;;;;;;;114.35;68.78;;;;;;;-4.00;100.00;102152.78;5090655;28;20052;-83
2022/12/21 08:14:26;;;;;;;119.22;72.88;;;;;;;-3.85;100.00;102151.16;5090706;28;20040;-82
2022/12/21 08:16:53;;;;;;;99.63;63.72;;;;;;;-4.25;100.00;102159.16;5090470;28;20477;-82
2022/12/21 08:19:23;;;;;;;92.03;63.40;;;;;;;-3.88;100.00;102164.31;5090615;28;20059;-83
2022/12/21 08:21:50;;;;;;;107.80;62.78;;;;;;;-4.02;100.00;102141.66;5077655;28;20180;-83
2022/12/21 08:24:17;;;;;;;102.75;61.55;;;;;;;-3.59;100.00;102144.66;5076871;28;20044;-85
2022/12/21 08:26:44;;;;;;;101.65;59.85;;;;;;;-4.07;100.00;102141.03;5077090;28;20048;-82
2022/12/21 08:29:13;;;;;;;106.28;61.72;;;;;;;-4.02;100.00;102133.84;5076608;28;20076;-83
2022/12/21 08:31:40;;;;;;;119.38;68.22;;;;;;;-3.79;100.00;102141.31;5076815;28;20048;-84
2022/12/21 08:34:07;;;;;;;121.72;69.22;;;;;;;-3.87;100.00;102137.41;5077031;28;20052;-84
2022/12/21 08:36:35;;;;;;;117.47;69.53;;;;;;;-3.84;100.00;102145.91;5076770;28;20052;-86
2022/12/21 08:39:02;;;;;;;120.53;72.25;;;;;;;-3.57;100.00;102124.59;5077080;28;20378;-82
2022/12/21 08:41:29;;;;;;;122.43;69.22;;;;;;;-3.78;100.00;102135.22;5076304;28;20045;-86
2022/12/21 08:43:56;;;;;;;111.15;67.60;;;;;;;-3.84;100.00;102130.34;5076882;28;20101;-84
2022/12/21 08:46:23;;;;;;;106.05;69.40;;;;;;;-4.05;100.00;102136.59;5076622;28;20087;-85
2022/12/21 08:48:50;;;;;;;115.85;67.80;;;;;;;-3.92;100.00;102124.69;5076347;28;20056;-84
2022/12/21 08:51:17;;;;;;;119.38;75.78;;;;;;;-3.53;100.00;102129.59;5077055;28;20451;-84
2022/12/21 08:53:45;;;;;;;106.28;67.65;;;;;;;-3.49;100.00;102132.84;5076295;28;20048;-82
2022/12/21 08:56:11;;;;;;;112.85;68.20;;;;;;;-3.61;100.00;102121.34;5076271;28;20114;-86
2022/12/21 08:58:38;;;;;;;107.90;71.22;;;;;;;-3.75;100.00;102121.19;5076921;28;20391;-84
2022/12/21 09:01:05;;;;;;;111.65;70.18;;;;;;;-3.26;100.00;102113.47;5076283;28;20056;-85
2022/12/21 09:03:32;;;;;;;102.50;70.28;;;;;;;-3.24;100.00;102107.25;5076290;28;20044;-83
2022/12/21 09:06:02;;;;;;;121.03;72.95;;;;;;;-3.23;100.00;102095.94;5075904;28;20056;-84
2022/12/21 09:08:29;;;;;;;128.70;75.18;;;;;;;-3.33;100.00;102089.56;5076152;28;20048;-83
2022/12/21 09:11:01;;;;;;;117.95;78.40;;;;;;;-3.33;100.00;102097.38;5076122;28;20121;-85
2022/12/21 09:13:29;;;;;;;120.22;76.45;;;;;;;-3.49;100.00;102096.47;5076382;28;20122;-84
2022/12/21 09:15:55;;;;;;;122.63;77.10;;;;;;;-3.42;100.00;102084.84;5076425;28;20114;-82
2022/12/21 09:18:22;;;;;;;117.72;70.32;;;;;;;-3.41;100.00;102073.53;5075756;28;20040;-82
2022/12/21 09:20:49;;;;;;;126.80;76.03;;;;;;;-3.42;100.00;102063.22;5076045;28;20053;-85
2022/12/21 09:23:15;;;;;;;118.97;78.18;;;;;;;-3.57;100.00;102073.53;5075574;28;20125;-85
2022/12/21 09:25:42;;;;;;;113.07;70.38;;;;;;;-3.46;100.00;102068.56;5076249;28;20102;-84
2022/12/21 09:28:10;;;;;;;116.32;70.97;;;;;;;-4.03;100.00;102081.09;5075675;28;20048;-84
2022/12/21 09:30:37;;;;;;;106.00;65.82;;;;;;;-3.77;100.00;102071.97;5075430;28;20041;-83
2022/12/21 09:35:45;;;;;;;117.78;72.13;;;;;;;-3.46;100.00;102070.34;5112413;27;20392;-84
2022/12/21 09:38:11;;;;;;;113.22;73.38;;;;;;;-3.45;100.00;102064.22;5112162;28;20051;-84
2022/12/21 09:40:38;;;;;;;101.45;67.90;;;;;;;-3.40;100.00;102059.63;5112255;28;20051;-84
2022/12/21 09:43:15;;;;;;;95.20;64.47;;;;;;;-3.03;100.00;102055.00;5112202;28;20117;-85
2022/12/21 09:45:52;;;;;;;98.07;63.22;;;;;;;-3.57;100.00;102055.34;5112228;28;20365;-86
2022/12/21 09:48:22;;;;;;;116.70;69.20;;;;;;;-3.17;100.00;102045.38;5111728;28;20541;-84
2022/12/21 09:50:55;;;;;;;117.68;72.43;;;;;;;-3.17;100.00;102052.34;5111845;28;20043;-83
2022/12/21 09:53:28;;;;;;;115.85;67.82;;;;;;;-3.19;100.00;102049.81;5111792;28;20130;-84
2022/12/21 09:55:57;;;;;;;107.50;68.50;;;;;;;-3.31;100.00;102038.34;5112076;28;20406;-84
2022/12/21 09:58:41;;;;;;;111.90;68.80;;;;;;;-3.08;100.00;102036.25;5111683;28;20140;-85
2022/12/21 10:01:21;;;;;;;107.70;68.68;;;;;;;-2.86;100.00;102038.47;5111370;28;20048;-84
2022/12/21 10:07:06;;;;;;;134.50;76.15;;;;;;;-2.94;100.00;102032.88;5091903;27;20609;-84
2022/12/21 10:09:51;;;;;;;118.38;67.20;;;;;;;-3.10;100.00;102015.53;5091897;28;20044;-83
2022/12/21 10:12:30;;;;;;;139.65;83.45;;;;;;;-2.78;100.00;102018.09;5091804;28;20052;-84
2022/12/21 10:15:08;;;;;;;129.63;70.75;;;;;;;-2.61;100.00;102023.13;5091596;28;20052;-85
2022/12/21 10:17:46;;;;;;;112.05;67.20;;;;;;;-2.92;100.00;102005.03;5091625;28;20125;-83
2022/12/21 10:20:31;;;;;;;123.72;72.60;;;;;;;-2.94;100.00;102019.84;5091797;28;20106;-85
2022/12/21 10:23:04;;;;;;;129.15;79.40;;;;;;;-2.78;100.00;102010.28;5091544;28;20051;-85
2022/12/21 10:25:40;;;;;;;126.18;75.28;;;;;;;-2.86;100.00;102004.66;5091697;28;20098;-85
2022/12/21 10:28:14;;;;;;;117.10;72.28;;;;;;;-3.07;100.00;102007.56;5091621;28;20048;-85
2022/12/21 10:30:47;;;;;;;119.18;69.22;;;;;;;-2.93;100.00;101991.19;5091483;28;20045;-84
2022/12/21 10:33:13;;;;;;;;;;;;;;;-2.47;100.00;101998.09;5092203;28;20396;-85
2022/12/21 10:35:40;;;;;;;115.75;69.03;;;;;;;-2.65;100.00;101998.22;5091360;28;19985;-83
2022/12/21 10:38:15;;;;;;;135.93;80.85;;;;;;;-2.65;100.00;101990.44;5091153;28;20052;-84
2022/12/21 10:43:47;;;;;;;121.82;74.82;;;;;;;-2.87;100.00;101988.25;5091909;27;20884;-83
2022/12/21 10:46:14;;;;;;;100.72;70.20;;;;;;;-2.66;100.00;101991.38;5091687;28;20048;-83
2022/12/21 10:48:40;;;;;;;112.75;73.25;;;;;;;-2.63;100.00;101986.00;5091619;28;20040;-85
2022/12/21 10:51:16;;;;;;;95.47;64.85;;;;;;;-3.02;100.00;101981.31;5092020;28;20048;-82
2022/12/21 10:53:58;;;;;;;99.05;65.82;;;;;;;-2.95;100.00;101974.00;5091307;28;20048;-86
2022/12/21 10:56:26;;;;;;;97.18;65.22;;;;;;;-2.68;100.00;101982.81;5091505;28;20139;-85
2022/12/21 11:01:59;;;;;;;119.80;71.65;;;;;;;-2.79;100.00;101975.59;5091614;27;20381;-83
2022/12/21 11:04:32;;;;;;;103.60;67.35;;;;;;;-2.79;100.00;101961.78;5091762;28;20056;-84
2022/12/21 11:07:02;;;;;;;103.18;65.10;;;;;;;-3.06;100.00;101970.22;5091741;28;20109;-83
2022/12/21 11:09:36;;;;;;;88.13;61.88;;;;;;;-2.76;100.00;101959.00;5091558;28;20048;-83
2022/12/21 11:12:22;;;;;;;104.88;71.35;;;;;;;-2.74;100.00;101951.94;5091744;28;20446;-83
2022/12/21 11:14:49;;;;;;;97.13;64.65;;;;;;;-2.76;100.00;101957.22;5091638;28;20105;-82
2022/12/21 11:20:08;;;;;;;106.43;68.70;;;;;;;-2.50;100.00;101948.84;5092583;27;20722;-84
2022/12/21 11:22:40;;;;;;;98.55;68.15;;;;;;;-2.27;100.00;101947.44;5091654;28;20048;-82
2022/12/21 11:25:15;;;;;;;101.35;69.75;;;;;;;-2.47;100.00;101938.25;5091888;28;20052;-83
2022/12/21 11:27:45;;;;;;;116.38;91.30;;;;;;;-2.60;100.00;101938.16;5091446;28;20454;-83
2022/12/21 11:30:19;;;;;;;119.22;92.82;;;;;;;-2.41;100.00;101936.13;5091908;28;20052;-82
2022/12/21 11:32:48;;;;;;;110.22;84.45;;;;;;;-2.26;100.00;101934.34;5091445;28;20078;-84
2022/12/21 11:35:20;;;;;;;122.13;95.45;;;;;;;-2.13;100.00;101931.84;5092231;28;20048;-82
2022/12/21 11:37:53;;;;;;;118.18;93.05;;;;;;;-2.57;100.00;101937.97;5091255;28;20044;-83
2022/12/21 11:40:21;;;;;;;;;;;;;;;-2.68;100.00;101924.75;5091769;28;20040;-84
2022/12/21 11:42:54;;;;;;;119.90;94.30;;;;;;;-2.68;100.00;101914.34;5091540;28;19967;-82
2022/12/21 11:45:24;;;;;;;112.10;90.43;;;;;;;-2.83;100.00;101911.72;5091430;28;20052;-84
2022/12/21 11:48:04;;;;;;;116.90;95.88;;;;;;;-2.60;100.00;101904.34;5091401;28;20052;-84
2022/12/21 11:50:43;;;;;;;120.18;100.88;;;;;;;-2.55;100.00;101904.88;5091539;28;20048;-82
2022/12/21 11:53:37;;;;;;;120.63;99.03;;;;;;;-3.00;100.00;101894.47;5091220;28;20040;-82
2022/12/21 11:56:16;;;;;;;130.48;95.10;;;;;;;-2.45;100.00;101895.59;5088443;28;20488;-85
2022/12/21 11:59:01;;;;;;;122.57;93.18;;;;;;;-2.27;100.00;101896.22;5091030;28;20451;-87
2022/12/21 12:01:41;;;;;;;119.75;90.70;;;;;;;-2.50;100.00;101884.63;5091060;28;20052;-84
2022/12/21 12:04:23;;;;;;;123.32;95.93;;;;;;;-2.50;100.00;101879.44;5091268;28;20044;-84
2022/12/21 12:07:21;;;;;;;119.22;88.30;;;;;;;-2.37;100.00;101879.50;5090964;28;20045;-84
2022/12/21 12:10:16;;;;;;;122.18;94.75;;;;;;;-2.79;100.00;101870.75;5089820;28;20052;-84
2022/12/21 12:12:53;;;;;;;132.00;98.40;;;;;;;-2.57;100.00;101870.34;5090615;28;20049;-83
2022/12/21 12:15:42;;;;;;;122.15;97.38;;;;;;;-2.49;100.00;101872.44;5091018;28;20048;-85